DAOO Airport Information

Runway Information
Runway 07 Length 10039 ft width 148 ft
Elevation 295 ft Threshold 0 ft Heading 67
Runway 25 Length 10039 ft Width 148 ft
Elevation 295 ft Threshold 196 ft Heading 247
Airport Frequencies
Type APP Name ORAN APP Frequency 128.2 MHZ
Type TWR Name ORAN TWR Frequency 118.1 MHZ
Airport Navaids
Type VOR-DME Name Oran Frequency 114000 KHZ
Airport Weather Information & NOTAM
ADDS - METARS form results

(1011 UTC 15 December 2019)
Data provider http://aviationweather.gov/metar/data/
 
METAR text: DAOO 151000Z 18006KT 9999 BKN020 14/11 Q1018
Conditions at: DAOO (ORAN/ES SENIA , DZ) observed 1000 UTC 15 December 2019
Temperature: 14.0°C (57°F)
Dewpoint: 11.0°C (52°F) [RH = 82%]
Pressure (altimeter): 30.06 inches Hg (1018.0 mb)
Winds: from the S (180 degrees) at 7 MPH (6 knots; 3.1 m/s)
Visibility: 6 or more miles (10+ km)
Ceiling: 2000 feet AGL
Clouds: broken clouds at 2000 feet AGL
Weather: no significant weather observed at this time

METAR text: DAOO 150930Z 17004KT 9999 BKN020 14/11 Q1018
Conditions at: DAOO (ORAN/ES SENIA , DZ) observed 0930 UTC 15 December 2019
Temperature: 14.0°C (57°F)
Dewpoint: 11.0°C (52°F) [RH = 82%]
Pressure (altimeter): 30.06 inches Hg (1018.0 mb)
Winds: from the S (170 degrees) at 5 MPH (4 knots; 2.1 m/s)
Visibility: 6 or more miles (10+ km)
Ceiling: 2000 feet AGL
Clouds: broken clouds at 2000 feet AGL
Weather: no significant weather observed at this time

Forecast for: DAOO (ORAN/ES SENIA , DZ)
Text: TAF DAOO 150500Z 1506/1606 22005KT 8000 BKN020
Forecast period: 0600 to 1200 UTC 15 December 2019
Forecast type: FROM: standard forecast or significant change
Winds: from the SW (220 degrees) at 6 MPH (5 knots; 2.6 m/s)
Visibility: 5 miles (8 km)
Ceiling: 2000 feet AGL
Clouds: broken clouds at 2000 feet AGL
Weather: no significant weather forecast for this period
Text: PROB40
Forecast period: 0600 to 0900 UTC 15 December 2019
Forecast type: TEMPORARY: The following changes expected for less than half the time period
Visibility: 0.93 miles (1.50 km)
Ceiling: 1000 feet AGL
Clouds: broken clouds at 1000 feet AGL
Weather: BR  (mist)
Text: TEMPO 1506/1509 1500 BR BKN010
Forecast period: 1200 UTC 15 December 2019 to 0600 UTC 16 December 2019
Forecast type: BECOMING: Conditions expected to become as follows by 1400 UTC 15 December 2019
Winds: from the SW (220 degrees) at 6 MPH (5 knots; 2.6 m/s)
Visibility: 6 or more miles 10+ km)
Ceiling: at least 12,000 feet AGL
Clouds: scattered clouds at 2600 feet AGL
Weather: no significant weather forecast for this period